Sunset Valley, Texas
Current Conditions -  °F | °C
As of 8:55 PM on Saturday 20 Dec 2014 (Local Time) from KAUS Reporting Station
Overcast Overcast  
Wind Chill: 51°   Ceiling: 3000
Heat Index: 51°   Visibility: 8mi
Dew Point: 47°   Wind: 6mph
Humidity: 86%   Direction: 50°NE
Pressure: 30.18"   Gusts: NA
Location:  30.2064°N, 97.7973°W
Report Text: KAUS 210255Z 05005KT 8SM FEW011 OVC030 11/08 A3018 RMK AO2 T01060083
Loading
Personal Weather Stations






























Interactive Weather Map New forecast layout! Learn more

10-Day Weather Forecast

Advertisements
Track Severe Weather on mobile